createdAt,value
2017-12-09T00:00:36.085Z,0
2017-12-09T00:01:46.363Z,0
2017-12-09T00:02:56.003Z,0
2017-12-09T00:04:06.113Z,0
2017-12-09T00:05:16.416Z,0
2017-12-09T00:06:26.699Z,0
2017-12-09T00:07:37.005Z,0
2017-12-09T00:08:47.281Z,0
2017-12-09T00:09:57.534Z,0
2017-12-09T00:11:07.844Z,0
2017-12-09T00:12:18.267Z,0
2017-12-09T00:13:28.507Z,0
2017-12-09T00:14:38.797Z,0
2017-12-09T00:15:48.783Z,0
2017-12-09T00:16:58.767Z,0
2017-12-09T00:18:09.029Z,0
2017-12-09T00:19:19.292Z,0
2017-12-09T00:20:29.568Z,0
2017-12-09T00:21:39.607Z,0
2017-12-09T00:22:49.327Z,0
2017-12-09T00:24:00.591Z,0
2017-12-09T00:25:10.616Z,0
2017-12-09T00:26:21.925Z,0
2017-12-09T00:27:32.193Z,0
2017-12-09T00:28:42.453Z,0
2017-12-09T00:29:52.561Z,0
2017-12-09T00:31:02.854Z,0
2017-12-09T00:32:12.631Z,0
2017-12-09T00:33:22.619Z,0
2017-12-09T00:34:32.899Z,0
2017-12-09T00:35:42.947Z,0
2017-12-09T00:36:53.313Z,0
2017-12-09T00:38:03.584Z,0
2017-12-09T00:39:13.833Z,0
2017-12-09T00:40:23.699Z,0
2017-12-09T00:41:33.986Z,0
2017-12-09T00:42:44.228Z,0
2017-12-09T00:43:54.616Z,0
2017-12-09T00:45:04.658Z,0
2017-12-09T00:46:15.200Z,0
2017-12-09T00:47:25.519Z,0
2017-12-09T00:48:35.779Z,0
2017-12-09T00:49:46.077Z,0
2017-12-09T00:50:56.418Z,0
2017-12-09T00:52:06.688Z,0
2017-12-09T00:53:17.003Z,0
2017-12-09T00:54:26.983Z,0
2017-12-09T00:55:37.290Z,0
2017-12-09T00:56:47.671Z,0
2017-12-09T00:57:57.963Z,0
2017-12-09T00:59:07.940Z,0
2017-12-09T01:00:18.296Z,0
2017-12-09T01:01:28.627Z,0
2017-12-09T01:02:38.630Z,0
2017-12-09T01:03:48.617Z,0
2017-12-09T01:04:58.870Z,0
2017-12-09T01:06:08.927Z,0
2017-12-09T01:07:19.181Z,0
2017-12-09T01:08:29.167Z,0
2017-12-09T01:09:39.439Z,0
2017-12-09T01:10:49.445Z,0
2017-12-09T01:11:59.678Z,0
2017-12-09T01:13:09.957Z,0
2017-12-09T01:14:20.047Z,0
2017-12-09T01:15:29.940Z,0
2017-12-09T01:16:39.961Z,0
2017-12-09T01:17:50.246Z,0
2017-12-09T01:19:00.503Z,0
2017-12-09T01:20:10.226Z,0
2017-12-09T01:21:20.482Z,0
2017-12-09T01:22:30.749Z,0
2017-12-09T01:23:41.030Z,0
2017-12-09T01:24:51.375Z,0
2017-12-09T01:26:01.626Z,0
2017-12-09T01:27:11.619Z,0
2017-12-09T01:28:21.851Z,0
2017-12-09T01:29:33.061Z,0
2017-12-09T01:30:43.556Z,0
2017-12-09T01:31:53.808Z,0
2017-12-09T01:33:04.071Z,0
2017-12-09T01:34:14.162Z,0
2017-12-09T01:35:24.143Z,0
2017-12-09T01:36:34.393Z,0
2017-12-09T01:37:44.648Z,0
2017-12-09T01:38:54.894Z,0
2017-12-09T01:40:05.840Z,0
2017-12-09T01:41:16.133Z,0
2017-12-09T01:42:25.787Z,0
2017-12-09T01:43:36.081Z,0
2017-12-09T01:44:46.253Z,0
2017-12-09T01:45:56.550Z,0
2017-12-09T01:47:06.809Z,0
2017-12-09T01:48:48.950Z,0
2017-12-09T01:49:58.835Z,0
2017-12-09T01:51:08.825Z,0
2017-12-09T01:52:18.469Z,0
2017-12-09T01:53:28.766Z,0
2017-12-09T01:54:38.125Z,0
2017-12-09T01:55:48.462Z,0
2017-12-09T01:56:58.709Z,0
2017-12-09T01:58:08.952Z,0
2017-12-09T01:59:19.308Z,0
2017-12-09T02:00:29.551Z,0
2017-12-09T02:01:39.537Z,0
2017-12-09T02:02:49.511Z,0
2017-12-09T02:03:59.796Z,0
2017-12-09T02:05:09.849Z,0
2017-12-09T02:06:19.840Z,0
2017-12-09T02:07:30.174Z,0
2017-12-09T02:08:40.454Z,0
2017-12-09T02:09:50.691Z,0
2017-12-09T02:11:00.725Z,0
2017-12-09T02:12:10.729Z,0
2017-12-09T02:13:21.001Z,0
2017-12-09T02:14:31.332Z,0
2017-12-09T02:15:41.339Z,0
2017-12-09T02:16:51.573Z,0
2017-12-09T02:18:01.833Z,0
2017-12-09T02:19:12.093Z,0
2017-12-09T02:20:22.337Z,0
2017-12-09T02:21:32.579Z,0
2017-12-09T02:22:42.818Z,0
2017-12-09T02:23:53.131Z,0
2017-12-09T02:25:03.178Z,0
2017-12-09T02:26:12.960Z,0
2017-12-09T02:27:23.235Z,0
2017-12-09T02:28:33.546Z,0
2017-12-09T02:29:43.888Z,0
2017-12-09T02:30:54.194Z,0
2017-12-09T02:32:04.439Z,0
2017-12-09T02:33:14.565Z,0
2017-12-09T02:34:25.122Z,0
2017-12-09T02:35:35.407Z,0
2017-12-09T02:36:45.588Z,0
2017-12-09T02:37:56.017Z,0
2017-12-09T02:39:06.279Z,0
2017-12-09T02:40:15.625Z,0
2017-12-09T02:41:25.906Z,0
2017-12-09T02:42:36.321Z,0
2017-12-09T02:43:46.581Z,0
2017-12-09T02:44:56.842Z,0
2017-12-09T02:46:07.094Z,0
2017-12-09T02:47:16.922Z,0
2017-12-09T02:48:26.913Z,0
2017-12-09T02:49:37.317Z,0
2017-12-09T02:50:47.301Z,0
2017-12-09T02:51:57.565Z,0
2017-12-09T02:53:07.894Z,0
2017-12-09T02:54:18.206Z,0
2017-12-09T02:55:28.464Z,0
2017-12-09T02:56:38.755Z,0
2017-12-09T02:57:48.759Z,0
2017-12-09T02:58:59.007Z,0
2017-12-09T03:00:09.282Z,0
2017-12-09T03:01:19.546Z,0
2017-12-09T03:02:29.791Z,0
2017-12-09T03:03:40.019Z,0
2017-12-09T03:04:50.284Z,0
2017-12-09T03:06:00.578Z,0
2017-12-09T03:07:10.880Z,0
2017-12-09T03:08:21.129Z,0
2017-12-09T03:09:31.019Z,0
2017-12-09T03:10:41.015Z,0
2017-12-09T03:11:50.994Z,0
2017-12-09T03:13:01.057Z,0
2017-12-09T03:14:11.124Z,0
2017-12-09T03:15:21.189Z,0
2017-12-09T03:16:31.489Z,0
2017-12-09T03:17:41.734Z,0
2017-12-09T03:18:52.021Z,0
2017-12-09T03:20:02.292Z,0
2017-12-09T03:21:12.578Z,0
2017-12-09T03:22:22.946Z,0
2017-12-09T03:23:33.213Z,0
2017-12-09T03:24:43.691Z,0
2017-12-09T03:25:54.068Z,0
2017-12-09T03:27:04.056Z,0
2017-12-09T03:28:14.065Z,0
2017-12-09T03:29:23.943Z,0
2017-12-09T03:30:34.190Z,0
2017-12-09T03:31:44.450Z,0
2017-12-09T03:32:54.592Z,0
2017-12-09T03:34:04.917Z,0
2017-12-09T03:35:15.210Z,0
2017-12-09T03:36:25.565Z,0
2017-12-09T03:37:35.887Z,0
2017-12-09T03:38:46.147Z,0
2017-12-09T03:39:56.461Z,0
2017-12-09T03:41:06.702Z,0
2017-12-09T03:42:16.970Z,0
2017-12-09T03:43:26.982Z,0
2017-12-09T03:44:36.997Z,0
2017-12-09T03:45:47.348Z,0
2017-12-09T03:46:57.598Z,0
2017-12-09T03:48:07.895Z,0
2017-12-09T03:49:17.792Z,0
2017-12-09T03:50:28.076Z,0
2017-12-09T03:51:38.383Z,0
2017-12-09T03:52:48.097Z,0
2017-12-09T03:53:58.368Z,0
2017-12-09T03:55:09.424Z,0
2017-12-09T03:56:19.665Z,0
2017-12-09T03:57:29.638Z,0
2017-12-09T03:58:39.725Z,0
2017-12-09T03:59:49.707Z,0
2017-12-09T04:00:59.684Z,0
2017-12-09T04:02:09.656Z,0
2017-12-09T04:03:19.941Z,0
2017-12-09T04:04:30.228Z,0
2017-12-09T04:05:39.935Z,0
2017-12-09T04:06:50.172Z,0
2017-12-09T04:08:00.039Z,0
2017-12-09T04:09:10.028Z,0
2017-12-09T04:10:19.905Z,0
2017-12-09T04:11:30.315Z,0
2017-12-09T04:12:40.625Z,0
2017-12-09T04:13:50.861Z,0
2017-12-09T04:15:01.109Z,0
2017-12-09T04:16:10.838Z,0
2017-12-09T04:17:21.070Z,0
2017-12-09T04:18:31.090Z,0
2017-12-09T04:19:41.007Z,0
2017-12-09T04:20:51.249Z,0
2017-12-09T04:22:01.482Z,0
2017-12-09T04:23:11.737Z,0
2017-12-09T04:24:21.761Z,0
2017-12-09T04:25:31.988Z,0
2017-12-09T04:26:42.252Z,0
2017-12-09T04:27:52.496Z,0
2017-12-09T04:29:02.759Z,0
2017-12-09T04:30:13.031Z,0
2017-12-09T04:31:23.305Z,0
2017-12-09T04:32:33.289Z,0
2017-12-09T04:33:43.325Z,0
2017-12-09T04:34:53.648Z,0
2017-12-09T04:36:03.627Z,0
2017-12-09T04:37:13.882Z,0
2017-12-09T04:38:23.903Z,0
2017-12-09T04:39:34.181Z,0
2017-12-09T04:40:44.163Z,0
2017-12-09T04:41:54.644Z,0
2017-12-09T04:43:04.949Z,0
2017-12-09T04:44:14.946Z,0
2017-12-09T04:45:25.236Z,0
2017-12-09T04:46:35.496Z,0
2017-12-09T04:47:45.575Z,0
2017-12-09T04:48:55.942Z,0
2017-12-09T04:50:06.305Z,0
2017-12-09T04:51:16.323Z,0
2017-12-09T04:52:26.239Z,0
2017-12-09T04:53:36.121Z,0
2017-12-09T04:54:46.108Z,0
2017-12-09T04:55:56.378Z,0
2017-12-09T04:57:06.692Z,0
2017-12-09T04:58:16.929Z,0
2017-12-09T04:59:27.160Z,0
2017-12-09T05:00:37.402Z,0
2017-12-09T05:01:47.653Z,0
2017-12-09T05:02:57.939Z,0
2017-12-09T05:04:07.915Z,0
2017-12-09T05:05:18.186Z,0
2017-12-09T05:06:28.462Z,0
2017-12-09T05:07:38.706Z,0
2017-12-09T05:08:49.023Z,0
2017-12-09T05:09:59.290Z,0
2017-12-09T05:11:09.625Z,0
2017-12-09T05:12:19.874Z,0
2017-12-09T05:13:30.116Z,0
2017-12-09T05:14:40.096Z,0
2017-12-09T05:15:50.348Z,0
2017-12-09T05:17:00.597Z,0
2017-12-09T05:18:11.075Z,0
2017-12-09T05:19:21.100Z,0
2017-12-09T05:20:31.407Z,0
2017-12-09T05:21:41.688Z,0
2017-12-09T05:22:51.927Z,0
2017-12-09T05:24:01.919Z,0
2017-12-09T05:25:12.175Z,0
2017-12-09T05:26:22.576Z,0
2017-12-09T05:27:32.610Z,0
2017-12-09T05:28:42.605Z,0
2017-12-09T05:29:52.870Z,0
2017-12-09T05:31:02.995Z,0
2017-12-09T05:32:13.215Z,0
2017-12-09T05:33:23.450Z,0
2017-12-09T05:34:34.671Z,0
2017-12-09T05:35:44.935Z,0
2017-12-09T05:36:55.245Z,0
2017-12-09T05:38:05.550Z,0
2017-12-09T05:39:15.843Z,0
2017-12-09T05:40:26.137Z,0
2017-12-09T05:41:36.388Z,0
2017-12-09T05:42:46.397Z,0
2017-12-09T05:43:56.639Z,0
2017-12-09T05:45:06.608Z,0
2017-12-09T05:46:16.778Z,0
2017-12-09T05:47:27.048Z,0
2017-12-09T05:48:37.335Z,0
2017-12-09T05:49:47.597Z,0
2017-12-09T05:50:57.845Z,0
2017-12-09T05:52:07.837Z,0
2017-12-09T05:53:18.290Z,0
2017-12-09T05:54:28.528Z,0
2017-12-09T05:55:38.531Z,0
2017-12-09T05:56:48.589Z,0
2017-12-09T05:57:58.754Z,0
2017-12-09T05:59:08.737Z,0
2017-12-09T06:00:19.009Z,0
2017-12-09T06:01:29.272Z,0
2017-12-09T06:02:39.597Z,0
2017-12-09T06:03:49.586Z,0
2017-12-09T06:04:59.895Z,0
2017-12-09T06:06:10.131Z,0
2017-12-09T06:07:20.377Z,0
2017-12-09T06:08:30.620Z,0
2017-12-09T06:09:40.591Z,0
2017-12-09T06:10:50.843Z,0
2017-12-09T06:12:01.178Z,0
2017-12-09T06:13:11.456Z,0
2017-12-09T06:14:21.788Z,0
2017-12-09T06:15:32.024Z,0
2017-12-09T06:16:42.019Z,0
2017-12-09T06:17:52.293Z,0
2017-12-09T06:19:02.264Z,0
2017-12-09T06:20:12.512Z,0
2017-12-09T06:21:22.806Z,0
2017-12-09T06:22:33.176Z,0
2017-12-09T06:23:43.428Z,0
2017-12-09T06:24:53.424Z,0
2017-12-09T06:26:03.765Z,0
2017-12-09T06:27:14.115Z,0
2017-12-09T06:28:24.106Z,0
2017-12-09T06:29:34.077Z,0
2017-12-09T06:30:44.077Z,0
2017-12-09T06:31:54.325Z,0
2017-12-09T06:33:04.303Z,0
2017-12-09T06:34:14.338Z,0
2017-12-09T06:35:23.943Z,0
2017-12-09T06:36:34.183Z,0
2017-12-09T06:37:44.444Z,4
2017-12-09T06:38:54.807Z,4
2017-12-09T06:40:05.105Z,0
2017-12-09T06:41:15.357Z,4
2017-12-09T06:42:25.351Z,0
2017-12-09T06:43:35.744Z,8
2017-12-09T06:44:46.063Z,4
2017-12-09T06:45:56.085Z,8
2017-12-09T06:47:06.491Z,12
2017-12-09T06:48:16.477Z,12
2017-12-09T06:49:26.515Z,12
2017-12-09T06:50:36.531Z,20
2017-12-09T06:51:46.490Z,20
2017-12-09T06:52:56.739Z,24
2017-12-09T06:54:06.995Z,28
2017-12-09T06:55:16.914Z,36
2017-12-09T06:56:27.240Z,44
2017-12-09T06:57:37.518Z,52
2017-12-09T06:58:47.783Z,56
2017-12-09T06:59:58.028Z,64
2017-12-09T07:01:08.079Z,60
2017-12-09T07:02:19.319Z,64
2017-12-09T07:03:29.296Z,68
2017-12-09T07:04:39.659Z,84
2017-12-09T07:05:49.628Z,100
2017-12-09T07:06:59.870Z,104
2017-12-09T07:08:09.888Z,104
2017-12-09T07:09:19.869Z,108
2017-12-09T07:10:30.115Z,124
2017-12-09T07:11:40.100Z,148
2017-12-09T07:12:50.480Z,164
2017-12-09T07:14:00.504Z,188
2017-12-09T07:15:10.778Z,204
2017-12-09T07:16:21.163Z,216
2017-12-09T07:17:31.440Z,216
2017-12-09T07:18:41.858Z,236
2017-12-09T07:19:51.888Z,276
2017-12-09T07:21:02.133Z,320
2017-12-09T07:22:11.804Z,356
2017-12-09T07:23:21.805Z,360
2017-12-09T07:24:31.681Z,340
2017-12-09T07:25:41.946Z,344
2017-12-09T07:26:52.184Z,400
2017-12-09T07:28:02.429Z,460
2017-12-09T07:29:12.696Z,504
2017-12-09T07:30:22.981Z,540
2017-12-09T07:31:33.365Z,592
2017-12-09T07:32:43.637Z,624
2017-12-09T07:33:53.878Z,680
2017-12-09T07:35:03.864Z,752
2017-12-09T07:36:14.148Z,836
2017-12-09T07:37:24.441Z,908
2017-12-09T07:38:34.712Z,956
2017-12-09T07:39:44.053Z,984
2017-12-09T07:40:54.468Z,956
2017-12-09T07:42:04.753Z,904
2017-12-09T07:43:14.849Z,864
2017-12-09T07:44:25.105Z,808
2017-12-09T07:45:35.033Z,744
2017-12-09T07:46:45.088Z,700
2017-12-09T07:47:55.517Z,648
2017-12-09T07:49:05.498Z,632
2017-12-09T07:50:15.532Z,652
2017-12-09T07:51:25.813Z,688
2017-12-09T07:52:36.109Z,736
2017-12-09T07:53:46.386Z,804
2017-12-09T07:54:56.669Z,844
2017-12-09T07:56:06.961Z,868
2017-12-09T07:57:17.300Z,868
2017-12-09T07:58:27.557Z,880
2017-12-09T07:59:37.815Z,864
2017-12-09T08:00:48.112Z,828
2017-12-09T08:01:58.096Z,816
2017-12-09T08:03:07.812Z,756
2017-12-09T08:04:18.142Z,700
2017-12-09T08:05:28.457Z,680
2017-12-09T08:06:38.714Z,684
2017-12-09T08:07:48.972Z,720
2017-12-09T08:08:58.951Z,696
2017-12-09T08:10:08.975Z,708
2017-12-09T08:11:19.413Z,592
2017-12-09T08:12:29.420Z,592
2017-12-09T08:13:39.477Z,644
2017-12-09T08:14:49.484Z,524
2017-12-09T08:15:59.861Z,540
2017-12-09T08:17:09.854Z,580
2017-12-09T08:18:20.108Z,612
2017-12-09T08:19:30.450Z,732
2017-12-09T08:20:40.714Z,608
2017-12-09T08:21:51.045Z,888
2017-12-09T08:23:01.273Z,1136
2017-12-09T08:24:11.599Z,1016
2017-12-09T08:25:21.854Z,1088
2017-12-09T08:26:31.482Z,1012
2017-12-09T08:27:41.721Z,1244
2017-12-09T08:28:51.983Z,1300
2017-12-09T08:30:02.007Z,1256
2017-12-09T08:31:12.006Z,1136
2017-12-09T08:32:22.281Z,1220
2017-12-09T08:33:32.005Z,1204
2017-12-09T08:34:42.267Z,760
2017-12-09T08:35:52.515Z,792
2017-12-09T08:37:02.866Z,844
2017-12-09T08:38:12.584Z,776
2017-12-09T08:39:22.944Z,792
2017-12-09T08:40:33.069Z,972
2017-12-09T08:41:43.466Z,920
2017-12-09T08:42:53.563Z,704
2017-12-09T08:44:03.878Z,880
2017-12-09T08:45:14.015Z,828
2017-12-09T08:46:24.352Z,1240
2017-12-09T08:47:34.615Z,1252
2017-12-09T08:48:44.400Z,960
2017-12-09T08:49:54.149Z,1020
2017-12-09T08:51:04.465Z,1056
2017-12-09T08:52:14.453Z,1052
2017-12-09T08:53:24.756Z,1260
2017-12-09T08:54:34.679Z,1052
2017-12-09T08:55:45.002Z,872
2017-12-09T08:56:55.280Z,904
2017-12-09T08:58:05.641Z,912
2017-12-09T08:59:15.655Z,980
2017-12-09T09:00:25.964Z,1092
2017-12-09T09:01:36.237Z,904
2017-12-09T09:02:46.518Z,952
2017-12-09T09:03:56.823Z,720
2017-12-09T09:05:07.196Z,784
2017-12-09T09:06:17.486Z,944
2017-12-09T09:07:27.802Z,888
2017-12-09T09:08:37.507Z,820
2017-12-09T09:09:47.573Z,676
2017-12-09T09:10:57.848Z,788
2017-12-09T09:12:07.838Z,740
2017-12-09T09:13:18.172Z,696
2017-12-09T09:14:28.526Z,700
2017-12-09T09:15:38.706Z,748
2017-12-09T09:16:49.036Z,948
2017-12-09T09:18:00.311Z,1128
2017-12-09T09:19:10.564Z,1436
2017-12-09T09:20:20.857Z,1748
2017-12-09T09:21:30.850Z,1416
2017-12-09T09:22:40.872Z,1380
2017-12-09T09:23:51.138Z,1264
2017-12-09T09:25:01.457Z,1404
2017-12-09T09:26:11.757Z,1208
2017-12-09T09:27:21.692Z,1144
2017-12-09T09:28:32.064Z,1092
2017-12-09T09:29:42.327Z,1172
2017-12-09T09:30:52.683Z,1236
2017-12-09T09:32:03.010Z,1224
2017-12-09T09:33:13.005Z,1216
2017-12-09T09:34:22.926Z,1296
2017-12-09T09:35:33.004Z,1220
2017-12-09T09:36:43.277Z,1116
2017-12-09T09:37:53.536Z,1036
2017-12-09T09:39:03.872Z,1116
2017-12-09T09:40:14.133Z,1120
2017-12-09T09:41:24.406Z,1256
2017-12-09T09:42:34.657Z,1312
2017-12-09T09:43:44.539Z,1360
2017-12-09T09:44:54.830Z,1432
2017-12-09T09:46:05.176Z,1572
2017-12-09T09:47:15.468Z,1528
2017-12-09T09:48:27.204Z,1548
2017-12-09T09:49:37.218Z,1424
2017-12-09T09:50:47.490Z,1520
2017-12-09T09:51:57.507Z,1764
2017-12-09T09:53:07.901Z,1616
2017-12-09T09:54:18.260Z,2056
2017-12-09T09:55:28.553Z,2344
2017-12-09T09:56:38.643Z,2080
2017-12-09T09:57:48.935Z,1912
2017-12-09T09:58:59.196Z,2708
2017-12-09T10:00:09.529Z,2656
2017-12-09T10:01:19.851Z,2392
2017-12-09T10:02:30.165Z,2476
2017-12-09T10:03:40.218Z,2248
2017-12-09T10:04:50.576Z,2428
2017-12-09T10:06:00.571Z,3632
2017-12-09T10:07:10.896Z,3780
2017-12-09T10:08:20.968Z,4336
2017-12-09T10:09:31.264Z,5180
2017-12-09T10:10:41.396Z,6424
2017-12-09T10:11:51.278Z,5928
2017-12-09T10:13:01.440Z,4172
2017-12-09T10:14:11.794Z,3980
2017-12-09T10:15:21.797Z,3488
2017-12-09T10:16:32.062Z,3492
2017-12-09T10:18:14.163Z,3680
2017-12-09T10:19:24.462Z,4032
2017-12-09T10:20:34.772Z,4120
2017-12-09T10:21:45.064Z,4024
2017-12-09T10:22:55.127Z,4180
2017-12-09T10:24:05.140Z,4556
2017-12-09T10:25:15.433Z,6172
2017-12-09T10:26:25.797Z,8320
2017-12-09T10:27:35.653Z,9064
2017-12-09T10:28:45.934Z,10124
2017-12-09T10:29:56.228Z,10136
2017-12-09T10:31:06.531Z,6768
2017-12-09T10:32:16.903Z,5580
2017-12-09T10:33:26.638Z,4176
2017-12-09T10:34:36.406Z,5208
2017-12-09T10:35:46.421Z,5152
2017-12-09T10:36:56.426Z,3116
2017-12-09T10:38:06.421Z,1676
2017-12-09T10:39:16.827Z,1408
2017-12-09T10:40:26.831Z,1120
2017-12-09T10:41:37.225Z,1020
2017-12-09T10:42:47.268Z,1280
2017-12-09T10:43:57.615Z,1612
2017-12-09T10:45:08.026Z,1744
2017-12-09T10:46:18.303Z,2088
2017-12-09T10:47:28.578Z,2724
2017-12-09T10:48:38.870Z,3356
2017-12-09T10:49:49.168Z,3376
2017-12-09T10:50:59.615Z,2912
2017-12-09T10:52:09.881Z,2724
2017-12-09T10:53:19.890Z,2588
2017-12-09T10:54:31.149Z,2108
2017-12-09T10:55:41.141Z,1736
2017-12-09T10:56:51.572Z,2084
2017-12-09T10:58:01.855Z,2172
2017-12-09T10:59:12.141Z,1976
2017-12-09T11:00:22.164Z,1624
2017-12-09T11:01:32.210Z,1464
2017-12-09T11:02:42.532Z,1220
2017-12-09T11:03:52.818Z,1416
2017-12-09T11:05:02.560Z,1180
2017-12-09T11:06:12.331Z,1388
2017-12-09T11:07:22.362Z,2328
2017-12-09T11:08:32.715Z,2304
2017-12-09T11:09:42.992Z,2060
2017-12-09T11:10:53.326Z,1396
2017-12-09T11:12:04.098Z,1072
2017-12-09T11:13:14.438Z,1048
2017-12-09T11:14:24.838Z,1304
2017-12-09T11:15:35.197Z,1652
2017-12-09T11:16:45.807Z,2544
2017-12-09T11:17:56.074Z,1776
2017-12-09T11:19:06.097Z,1552
2017-12-09T11:20:16.406Z,2188
2017-12-09T11:21:26.446Z,2344
2017-12-09T11:22:36.486Z,3092
2017-12-09T11:23:46.764Z,2816
2017-12-09T11:24:57.106Z,2412
2017-12-09T11:26:07.081Z,2516
2017-12-09T11:27:17.398Z,3624
2017-12-09T11:28:27.678Z,4020
2017-12-09T11:29:37.941Z,3612
2017-12-09T11:30:48.356Z,2892
2017-12-09T11:31:58.807Z,2620
2017-12-09T11:33:09.123Z,2616
2017-12-09T11:34:19.394Z,2368
2017-12-09T11:35:29.665Z,3692
2017-12-09T11:36:46.378Z,5584
2017-12-09T11:38:04.582Z,6096
2017-12-09T11:39:22.228Z,4916
2017-12-09T11:40:40.097Z,5128
2017-12-09T11:41:58.665Z,5392
2017-12-09T11:43:16.678Z,5320
2017-12-09T11:44:34.453Z,6860
2017-12-09T11:45:52.405Z,7384
2017-12-09T11:47:11.106Z,8976
2017-12-09T11:48:28.857Z,7168
2017-12-09T11:49:46.565Z,5136
2017-12-09T11:51:04.715Z,5888
2017-12-09T11:52:23.353Z,6256
2017-12-09T11:53:41.518Z,5736
2017-12-09T11:54:59.917Z,6888
2017-12-09T11:56:17.223Z,9164
2017-12-09T11:57:36.041Z,11028
2017-12-09T11:58:48.592Z,9728
2017-12-09T11:59:58.628Z,7332
2017-12-09T12:01:08.755Z,6652
2017-12-09T12:02:19.019Z,7980
2017-12-09T12:03:29.028Z,7668
2017-12-09T12:04:39.296Z,6448
2017-12-09T12:05:49.369Z,3684
2017-12-09T12:06:59.619Z,2736
2017-12-09T12:08:09.784Z,3144
2017-12-09T12:09:20.072Z,2624
2017-12-09T12:10:30.008Z,2872
2017-12-09T12:11:40.480Z,3448
2017-12-09T12:12:53.646Z,4240
2017-12-09T12:14:20.996Z,5968
2017-12-09T12:15:44.469Z,10276
2017-12-09T12:17:02.070Z,3992
2017-12-09T12:18:19.285Z,4108
2017-12-09T12:19:38.695Z,5356
2017-12-09T12:20:56.628Z,6032
2017-12-09T12:22:14.826Z,3968
2017-12-09T12:23:35.121Z,2456
2017-12-09T12:25:06.705Z,2832
2017-12-09T12:26:30.257Z,2252
2017-12-09T12:28:00.263Z,2532
2017-12-09T12:29:30.620Z,2284
2017-12-09T12:31:06.183Z,1612
2017-12-09T12:32:25.636Z,1232
2017-12-09T12:33:44.183Z,1152
2017-12-09T12:35:01.496Z,1216
2017-12-09T12:36:20.360Z,1020
2017-12-09T12:37:38.585Z,1052
2017-12-09T12:38:55.882Z,1252
2017-12-09T12:40:12.963Z,1600
2017-12-09T12:41:31.753Z,1628
2017-12-09T12:42:49.920Z,1648
2017-12-09T12:44:08.007Z,2520
2017-12-09T12:45:24.181Z,2108
2017-12-09T12:46:36.549Z,3692
2017-12-09T12:47:46.611Z,4480
2017-12-09T12:48:56.887Z,4300
2017-12-09T12:50:07.192Z,3060
2017-12-09T12:51:17.205Z,2476
2017-12-09T12:52:27.970Z,2724
2017-12-09T12:53:38.274Z,2888
2017-12-09T12:54:48.321Z,3096
2017-12-09T12:55:58.666Z,2936
2017-12-09T12:57:08.973Z,3152
2017-12-09T12:58:19.284Z,3652
2017-12-09T12:59:29.589Z,4132
2017-12-09T13:00:39.915Z,4436
2017-12-09T13:01:50.212Z,6044
2017-12-09T13:03:00.510Z,6272
2017-12-09T13:04:11.080Z,5736
2017-12-09T13:05:21.353Z,4220
2017-12-09T13:06:31.655Z,4480
2017-12-09T13:07:41.966Z,5416
2017-12-09T13:08:51.884Z,4316
2017-12-09T13:10:02.212Z,3564
2017-12-09T13:11:12.662Z,3420
2017-12-09T13:12:22.629Z,3624
2017-12-09T13:13:33.007Z,3720
2017-12-09T13:14:43.337Z,3364
2017-12-09T13:15:53.378Z,3080
2017-12-09T13:17:03.692Z,2204
2017-12-09T13:18:14.020Z,2404
2017-12-09T13:19:24.358Z,2712
2017-12-09T13:20:34.389Z,2696
2017-12-09T13:21:44.417Z,2836
2017-12-09T13:22:54.745Z,2448
2017-12-09T13:24:04.408Z,2108
2017-12-09T13:25:14.724Z,1732
2017-12-09T13:26:25.073Z,1520
2017-12-09T13:27:35.655Z,1592
2017-12-09T13:28:45.728Z,1484
2017-12-09T13:29:55.774Z,1516
2017-12-09T13:31:06.076Z,1748
2017-12-09T13:32:16.500Z,2064
2017-12-09T13:33:26.825Z,2104
2017-12-09T13:34:36.879Z,1668
2017-12-09T13:35:46.785Z,1424
2017-12-09T13:36:57.086Z,1188
2017-12-09T13:38:07.360Z,976
2017-12-09T13:39:17.666Z,960
2017-12-09T13:40:27.972Z,868
2017-12-09T13:41:38.273Z,1040
2017-12-09T13:42:48.576Z,1580
2017-12-09T13:43:58.841Z,1548
2017-12-09T13:45:09.130Z,1628
2017-12-09T13:46:19.416Z,1128
2017-12-09T13:47:29.698Z,1272
2017-12-09T13:48:40.068Z,1560
2017-12-09T13:49:49.889Z,2092
2017-12-09T13:51:00.169Z,1608
2017-12-09T13:52:10.441Z,1508
2017-12-09T13:53:20.817Z,1388
2017-12-09T13:54:36.392Z,1224
2017-12-09T13:55:52.236Z,1260
2017-12-09T13:57:09.479Z,1268
2017-12-09T13:58:28.010Z,1048
2017-12-09T13:59:46.241Z,916
2017-12-09T14:01:04.043Z,756
2017-12-09T14:02:21.909Z,608
2017-12-09T14:03:40.586Z,652
2017-12-09T14:04:59.175Z,712
2017-12-09T14:06:17.376Z,760
2017-12-09T14:07:35.364Z,696
2017-12-09T14:08:54.398Z,516
2017-12-09T14:10:13.031Z,496
2017-12-09T14:11:31.604Z,428
2017-12-09T14:12:50.884Z,404
2017-12-09T14:14:10.100Z,448
2017-12-09T14:15:28.150Z,444
2017-12-09T14:16:46.491Z,488
2017-12-09T14:18:03.961Z,636
2017-12-09T14:19:22.734Z,856
2017-12-09T14:20:40.908Z,848
2017-12-09T14:21:58.376Z,808
2017-12-09T14:23:16.411Z,772
2017-12-09T14:24:35.370Z,580
2017-12-09T14:25:54.449Z,552
2017-12-09T14:27:12.699Z,548
2017-12-09T14:28:30.517Z,580
2017-12-09T14:29:49.556Z,616
2017-12-09T14:31:07.579Z,512
2017-12-09T14:32:25.504Z,464
2017-12-09T14:33:44.162Z,412
2017-12-09T14:35:03.240Z,388
2017-12-09T14:36:21.658Z,360
2017-12-09T14:37:34.042Z,344
2017-12-09T14:38:44.619Z,348
2017-12-09T14:39:54.643Z,376
2017-12-09T14:41:04.369Z,336
2017-12-09T14:42:14.651Z,268
2017-12-09T14:43:24.954Z,248
2017-12-09T14:44:35.258Z,200
2017-12-09T14:45:45.525Z,224
2017-12-09T14:46:55.645Z,216
2017-12-09T14:48:05.961Z,184
2017-12-09T14:49:15.962Z,196
2017-12-09T14:50:26.318Z,180
2017-12-09T14:51:36.584Z,200
2017-12-09T14:52:46.645Z,176
2017-12-09T14:53:56.438Z,164
2017-12-09T14:55:06.485Z,208
2017-12-09T14:56:16.902Z,268
2017-12-09T14:57:27.323Z,264
2017-12-09T14:58:37.614Z,240
2017-12-09T14:59:47.886Z,200
2017-12-09T15:00:58.250Z,184
2017-12-09T15:02:08.592Z,156
2017-12-09T15:03:18.915Z,132
2017-12-09T15:04:28.854Z,116
2017-12-09T15:05:39.141Z,108
2017-12-09T15:06:49.140Z,116
2017-12-09T15:07:59.306Z,108
2017-12-09T15:09:09.619Z,88
2017-12-09T15:10:20.058Z,76
2017-12-09T15:11:30.380Z,60
2017-12-09T15:12:40.295Z,48
2017-12-09T15:13:50.208Z,44
2017-12-09T15:15:00.251Z,44
2017-12-09T15:16:10.639Z,36
2017-12-09T15:17:21.605Z,36
2017-12-09T15:18:32.013Z,28
2017-12-09T15:19:41.953Z,28
2017-12-09T15:20:52.240Z,20
2017-12-09T15:22:02.683Z,16
2017-12-09T15:23:12.615Z,16
2017-12-09T15:24:22.693Z,16
2017-12-09T15:25:32.849Z,12
2017-12-09T15:26:43.136Z,12
2017-12-09T15:27:53.438Z,8
2017-12-09T15:29:03.718Z,8
2017-12-09T15:30:14.016Z,4
2017-12-09T15:31:23.793Z,0
2017-12-09T15:32:35.253Z,4
2017-12-09T15:33:45.298Z,4
2017-12-09T15:34:55.320Z,0
2017-12-09T15:36:37.501Z,4
2017-12-09T15:37:47.503Z,4
2017-12-09T15:38:57.593Z,0
2017-12-09T15:40:07.983Z,0
2017-12-09T15:41:18.376Z,0
2017-12-09T15:42:30.518Z,0
2017-12-09T15:43:47.355Z,0
2017-12-09T15:45:02.912Z,0
2017-12-09T15:46:18.948Z,0
2017-12-09T15:47:35.644Z,0
2017-12-09T15:48:47.360Z,0
2017-12-09T15:49:57.953Z,0
2017-12-09T15:51:08.057Z,0
2017-12-09T15:52:18.132Z,0
2017-12-09T15:53:28.501Z,0
2017-12-09T15:54:38.792Z,0
2017-12-09T15:55:49.068Z,0
2017-12-09T15:56:58.832Z,0
2017-12-09T15:58:09.217Z,0
2017-12-09T15:59:19.355Z,0
2017-12-09T16:00:29.778Z,0
2017-12-09T16:01:39.467Z,0
2017-12-09T16:02:49.929Z,0
2017-12-09T16:04:00.218Z,0
2017-12-09T16:05:10.238Z,0
2017-12-09T16:06:20.225Z,0
2017-12-09T16:07:30.638Z,0
2017-12-09T16:08:40.963Z,0
2017-12-09T16:09:51.031Z,0
2017-12-09T16:11:01.304Z,0
2017-12-09T16:12:11.637Z,0
2017-12-09T16:13:21.677Z,0
2017-12-09T16:14:31.969Z,0
2017-12-09T16:15:42.097Z,0
2017-12-09T16:16:52.457Z,0
2017-12-09T16:18:02.448Z,0
2017-12-09T16:19:12.773Z,0
2017-12-09T16:20:23.069Z,0
2017-12-09T16:21:34.365Z,0
2017-12-09T16:22:44.423Z,0
2017-12-09T16:23:54.853Z,0
2017-12-09T16:25:04.912Z,0
2017-12-09T16:26:15.223Z,0
2017-12-09T16:27:25.023Z,0
2017-12-09T16:28:35.359Z,0
2017-12-09T16:29:45.685Z,0
2017-12-09T16:30:56.088Z,0
2017-12-09T16:32:06.451Z,0
2017-12-09T16:33:16.128Z,0
2017-12-09T16:34:26.439Z,0
2017-12-09T16:35:36.517Z,0
2017-12-09T16:36:46.847Z,0
2017-12-09T16:37:57.231Z,0
2017-12-09T16:39:07.536Z,0
2017-12-09T16:40:17.820Z,0
2017-12-09T16:41:28.690Z,0
2017-12-09T16:42:38.960Z,0
2017-12-09T16:43:49.011Z,0